This is the latest recevied weather packets stored in our database for station/object SQ9PDE-13. If no packets are shown the sender has not sent any weather packets the latest 10 day(s).
| Time | Temp. | Humidity | Pressure | Rain* | Wind** | Luminosity | Snow |
|---|---|---|---|---|---|---|---|
| 1787681343 | 13.33° C | 84% | 1021.9 hPa | - | - | - | - |
| 1787681042 | 13.33° C | 85% | 1021.9 hPa | - | - | - | - |
| 1787680742 | 13.33° C | 84% | 1021.8 hPa | - | - | - | - |
| 1787680441 | 13.33° C | 83% | 1021.8 hPa | - | - | - | - |
| 1787680141 | 13.33° C | 86% | 1021.9 hPa | - | - | - | - |
| 1787679840 | 13.33° C | 84% | 1021.9 hPa | - | - | - | - |
| 1787679540 | 13.33° C | 83% | 1021.9 hPa | - | - | - | - |
| 1787679239 | 13.33° C | 83% | 1021.9 hPa | - | - | - | - |
| 1787678938 | 13.33° C | 82% | 1021.8 hPa | - | - | - | - |
| 1787678638 | 13.89° C | 81% | 1021.8 hPa | - | - | - | - |
| 1787678337 | 13.33° C | 83% | 1021.8 hPa | - | - | - | - |
| 1787678037 | 13.33° C | 82% | 1021.8 hPa | - | - | - | - |
| 1787677795 | 13.33° C | 82% | 1021.8 hPa | - | - | - | - |
| 1787677736 | 13.33° C | 82% | 1021.8 hPa | - | - | - | - |
| 1787677436 | 13.33° C | 83% | 1021.7 hPa | - | - | - | - |
| 1787677135 | 13.33° C | 83% | 1021.7 hPa | - | - | - | - |
| 1787677038 | 13.33° C | 85% | 1021.8 hPa | - | - | - | - |
| 1787676738 | 13.33° C | 85% | 1021.9 hPa | - | - | - | - |
| 1787676437 | 13.33° C | 86% | 1022 hPa | - | - | - | - |
| 1787676137 | 13.33° C | 83% | 1021.9 hPa | - | - | - | - |
| 1787675836 | 13.33° C | 81% | 1021.7 hPa | - | - | - | - |
| 1787675657 | 13.33° C | 82% | 1021.9 hPa | - | - | - | - |
| 1787675536 | 13.33° C | 82% | 1021.9 hPa | - | - | - | - |
| 1787675235 | 13.33° C | 81% | 1021.8 hPa | - | - | - | - |
| 1787674935 | 13.33° C | 81% | 1021.8 hPa | - | - | - | - |
* Rain since midnight (hover to see other rain measurements)
** Current wind speed in m/s (hover to see current wind gust speed)